createdAt,value
2017-10-18T00:00:30.515Z,12.89
2017-10-18T00:02:56.321Z,12.85
2017-10-18T00:05:22.083Z,12.85
2017-10-18T00:07:47.840Z,12.88
2017-10-18T00:10:13.599Z,12.91
2017-10-18T00:12:39.365Z,12.90
2017-10-18T00:15:05.190Z,12.85
2017-10-18T00:17:30.986Z,12.87
2017-10-18T00:19:56.754Z,12.92
2017-10-18T00:22:24.536Z,12.90
2017-10-18T00:24:50.372Z,12.89
2017-10-18T00:27:16.132Z,12.82
2017-10-18T00:29:41.943Z,12.70
2017-10-18T00:32:07.711Z,12.61
2017-10-18T00:34:33.491Z,12.51
2017-10-18T00:36:59.243Z,12.40
2017-10-18T00:39:25.067Z,12.39
2017-10-18T00:41:50.823Z,12.28
2017-10-18T00:44:16.578Z,12.23
2017-10-18T00:46:42.339Z,12.16
2017-10-18T00:49:08.125Z,12.05
2017-10-18T00:51:33.902Z,11.99
2017-10-18T00:53:59.659Z,12.09
2017-10-18T00:56:25.398Z,12.06
2017-10-18T00:58:51.158Z,12.07
2017-10-18T01:01:16.931Z,12.00
2017-10-18T01:03:42.684Z,12.01
2017-10-18T01:06:08.466Z,11.99
2017-10-18T01:08:34.224Z,12.05
2017-10-18T01:10:59.991Z,11.97
2017-10-18T01:13:25.740Z,11.94
2017-10-18T01:15:51.510Z,11.83
2017-10-18T01:18:17.268Z,11.84
2017-10-18T01:20:43.026Z,11.88
2017-10-18T01:23:08.779Z,11.82
2017-10-18T01:25:34.559Z,11.80
2017-10-18T01:28:00.332Z,11.83
2017-10-18T01:30:26.166Z,11.78
2017-10-18T01:32:51.911Z,11.81
2017-10-18T01:35:18.747Z,11.78
2017-10-18T01:37:44.518Z,11.73
2017-10-18T01:40:10.391Z,11.71
2017-10-18T01:42:36.138Z,11.70
2017-10-18T01:45:01.888Z,11.62
2017-10-18T01:47:27.667Z,11.61
2017-10-18T01:49:53.411Z,11.65
2017-10-18T01:52:19.157Z,11.65
2017-10-18T01:54:44.926Z,11.57
2017-10-18T01:57:10.711Z,11.51
2017-10-18T01:59:36.470Z,11.52
2017-10-18T02:02:02.219Z,11.48
2017-10-18T02:04:27.970Z,11.42
2017-10-18T02:06:53.718Z,11.42
2017-10-18T02:09:19.500Z,11.38
2017-10-18T02:11:45.255Z,11.43
2017-10-18T02:14:11.015Z,11.42
2017-10-18T02:16:36.775Z,11.37
2017-10-18T02:19:02.559Z,11.40
2017-10-18T02:21:28.319Z,11.40
2017-10-18T02:23:54.067Z,11.39
2017-10-18T02:26:19.838Z,11.43
2017-10-18T02:28:45.618Z,11.44
2017-10-18T02:31:11.358Z,11.40
2017-10-18T02:33:37.216Z,11.42
2017-10-18T02:36:03.003Z,11.03
2017-10-18T02:38:28.794Z,10.81
2017-10-18T02:40:54.558Z,10.88
2017-10-18T02:43:20.341Z,10.95
2017-10-18T02:45:46.115Z,11.08
2017-10-18T02:48:11.860Z,11.13
2017-10-18T02:50:37.627Z,11.08
2017-10-18T02:53:03.415Z,11.11
2017-10-18T02:55:29.174Z,11.10
2017-10-18T02:57:54.909Z,11.15
2017-10-18T03:00:20.684Z,11.12
2017-10-18T03:02:46.421Z,11.10
2017-10-18T03:05:12.195Z,11.09
2017-10-18T03:07:37.967Z,11.06
2017-10-18T03:10:03.712Z,11.03
2017-10-18T03:12:29.487Z,10.97
2017-10-18T03:14:55.258Z,10.93
2017-10-18T03:17:21.011Z,10.89
2017-10-18T03:19:46.805Z,10.86
2017-10-18T03:22:12.547Z,10.86
2017-10-18T03:24:38.315Z,10.83
2017-10-18T03:27:04.080Z,10.79
2017-10-18T03:29:29.856Z,10.64
2017-10-18T03:31:55.640Z,10.76
2017-10-18T03:34:21.499Z,10.78
2017-10-18T03:36:47.295Z,10.78
2017-10-18T03:39:13.181Z,10.74
2017-10-18T03:41:38.924Z,10.75
2017-10-18T03:44:04.694Z,10.72
2017-10-18T03:46:30.451Z,10.81
2017-10-18T03:48:56.260Z,10.80
2017-10-18T03:51:22.020Z,10.85
2017-10-18T03:53:47.807Z,10.84
2017-10-18T03:56:13.622Z,10.79
2017-10-18T03:58:39.360Z,10.73
2017-10-18T04:01:05.132Z,10.74
2017-10-18T04:03:30.894Z,10.69
2017-10-18T04:05:56.752Z,10.71
2017-10-18T04:08:22.510Z,10.71
2017-10-18T04:10:48.358Z,10.66
2017-10-18T04:13:14.108Z,10.58
2017-10-18T04:15:39.879Z,10.65
2017-10-18T04:18:05.651Z,10.62
2017-10-18T04:20:31.414Z,10.53
2017-10-18T04:22:57.235Z,10.53
2017-10-18T04:25:23.006Z,10.52
2017-10-18T04:27:50.696Z,10.50
2017-10-18T04:33:06.751Z,10.40
2017-10-18T04:38:22.895Z,10.41
2017-10-18T04:40:48.648Z,10.36
2017-10-18T04:43:25.407Z,10.40
2017-10-18T04:45:52.327Z,10.40
2017-10-18T04:48:18.090Z,10.38
2017-10-18T04:50:43.871Z,10.47
2017-10-18T04:53:09.623Z,10.40
2017-10-18T04:55:35.364Z,10.21
2017-10-18T04:58:01.136Z,10.04
2017-10-18T05:03:25.023Z,10.04
2017-10-18T05:05:50.808Z,9.99
2017-10-18T05:08:16.579Z,10.00
2017-10-18T05:10:42.380Z,9.97
2017-10-18T05:13:08.146Z,9.85
2017-10-18T05:15:33.920Z,9.81
2017-10-18T05:17:59.684Z,9.84
2017-10-18T05:20:25.467Z,9.84
2017-10-18T05:22:51.223Z,9.91
2017-10-18T05:25:17.000Z,9.93
2017-10-18T05:27:42.807Z,9.78
2017-10-18T05:30:08.585Z,9.71
2017-10-18T05:32:34.351Z,9.57
2017-10-18T05:35:00.111Z,9.36
2017-10-18T05:37:25.863Z,9.23
2017-10-18T05:39:51.629Z,9.25
2017-10-18T05:42:17.386Z,9.26
2017-10-18T05:44:43.139Z,9.35
2017-10-18T05:47:08.887Z,9.41
2017-10-18T05:49:34.643Z,9.42
2017-10-18T05:52:00.395Z,9.24
2017-10-18T05:54:26.147Z,9.29
2017-10-18T05:56:51.907Z,9.34
2017-10-18T05:59:17.702Z,9.45
2017-10-18T06:01:43.466Z,9.53
2017-10-18T06:04:09.210Z,9.53
2017-10-18T06:06:34.969Z,9.54
2017-10-18T06:09:00.731Z,9.52
2017-10-18T06:11:26.464Z,9.56
2017-10-18T06:13:52.214Z,9.66
2017-10-18T06:16:17.976Z,9.62
2017-10-18T06:18:43.790Z,9.69
2017-10-18T06:21:09.562Z,9.62
2017-10-18T06:23:35.346Z,9.85
2017-10-18T06:26:01.155Z,10.04
2017-10-18T06:28:26.986Z,10.11
2017-10-18T06:30:52.763Z,10.17
2017-10-18T06:33:18.534Z,10.23
2017-10-18T06:35:44.326Z,10.30
2017-10-18T06:38:10.095Z,10.45
2017-10-18T06:40:35.853Z,10.60
2017-10-18T06:43:01.631Z,11.17
2017-10-18T06:45:27.406Z,11.44
2017-10-18T06:47:53.159Z,11.95
2017-10-18T06:50:18.916Z,12.83
2017-10-18T06:52:44.687Z,13.67
2017-10-18T06:55:10.438Z,14.56
2017-10-18T06:57:36.226Z,15.36
2017-10-18T07:00:02.003Z,16.01
2017-10-18T07:02:27.796Z,16.61
2017-10-18T07:04:53.574Z,17.10
2017-10-18T07:07:19.320Z,17.46
2017-10-18T07:09:45.099Z,17.60
2017-10-18T07:12:10.847Z,18.29
2017-10-18T07:14:36.639Z,18.40
2017-10-18T07:17:02.395Z,18.83
2017-10-18T07:19:28.166Z,19.50
2017-10-18T07:21:53.942Z,19.92
2017-10-18T07:24:19.700Z,20.32
2017-10-18T07:26:45.467Z,19.81
2017-10-18T07:29:11.227Z,19.28
2017-10-18T07:31:36.979Z,18.66
2017-10-18T07:34:02.751Z,18.62
2017-10-18T07:36:28.491Z,17.98
2017-10-18T07:38:54.242Z,17.60
2017-10-18T07:41:20.031Z,17.58
2017-10-18T07:43:45.776Z,17.28
2017-10-18T07:46:11.514Z,18.01
2017-10-18T07:48:37.292Z,18.97
2017-10-18T07:51:03.038Z,20.32
2017-10-18T07:53:28.814Z,20.66
2017-10-18T07:55:54.599Z,20.84
2017-10-18T07:58:20.359Z,20.77
2017-10-18T08:00:46.124Z,20.85
2017-10-18T08:03:11.895Z,21.01
2017-10-18T08:05:37.674Z,21.55
2017-10-18T08:08:03.483Z,22.24
2017-10-18T08:10:29.251Z,22.60
2017-10-18T08:12:55.007Z,23.54
2017-10-18T08:15:20.801Z,24.09
2017-10-18T08:17:46.556Z,23.60
2017-10-18T08:20:12.310Z,23.59
2017-10-18T08:22:38.193Z,24.16
2017-10-18T08:25:03.975Z,24.55
2017-10-18T08:27:29.718Z,24.51
2017-10-18T08:29:55.479Z,24.23
2017-10-18T08:32:21.310Z,24.03
2017-10-18T08:34:47.099Z,24.40
2017-10-18T08:37:12.864Z,25.84
2017-10-18T08:39:38.659Z,26.89
2017-10-18T08:42:04.434Z,27.17
2017-10-18T08:44:30.199Z,26.84
2017-10-18T08:46:55.955Z,26.34
2017-10-18T08:49:21.747Z,26.09
2017-10-18T08:51:47.511Z,26.16
2017-10-18T08:54:13.278Z,26.50
2017-10-18T08:56:39.058Z,26.82
2017-10-18T08:59:04.827Z,27.36
2017-10-18T09:01:30.563Z,27.59
2017-10-18T09:03:56.351Z,27.78
2017-10-18T09:06:22.147Z,27.70
2017-10-18T09:08:47.904Z,27.59
2017-10-18T09:11:13.651Z,28.29
2017-10-18T09:13:39.458Z,28.52
2017-10-18T09:16:05.230Z,28.16
2017-10-18T09:18:30.983Z,28.48
2017-10-18T09:20:56.744Z,29.15
2017-10-18T09:23:22.530Z,29.82
2017-10-18T09:25:48.279Z,30.04
2017-10-18T09:28:14.018Z,30.30
2017-10-18T09:30:39.783Z,29.93
2017-10-18T09:33:05.559Z,29.79
2017-10-18T09:35:31.313Z,29.93
2017-10-18T09:37:57.059Z,29.67
2017-10-18T09:40:22.815Z,30.29
2017-10-18T09:42:48.576Z,30.27
2017-10-18T09:45:14.326Z,30.18
2017-10-18T09:47:40.088Z,28.93
2017-10-18T09:50:05.860Z,27.56
2017-10-18T09:52:31.601Z,27.75
2017-10-18T09:54:57.371Z,28.79
2017-10-18T09:57:23.122Z,29.19
2017-10-18T09:59:48.896Z,29.10
2017-10-18T10:02:14.645Z,29.86
2017-10-18T10:04:40.385Z,29.95
2017-10-18T10:07:06.159Z,29.21
2017-10-18T10:09:31.907Z,30.36
2017-10-18T10:11:57.647Z,31.18
2017-10-18T10:14:23.423Z,31.51
2017-10-18T10:16:49.181Z,32.16
2017-10-18T10:19:14.984Z,32.01
2017-10-18T10:21:40.727Z,31.00
2017-10-18T10:24:06.483Z,31.01
2017-10-18T10:26:32.251Z,31.46
2017-10-18T10:28:58.004Z,31.97
2017-10-18T10:31:23.783Z,32.22
2017-10-18T10:33:49.527Z,31.42
2017-10-18T10:36:15.268Z,30.89
2017-10-18T10:38:41.049Z,30.87
2017-10-18T10:41:06.806Z,30.50
2017-10-18T10:43:32.571Z,30.53
2017-10-18T10:45:58.327Z,29.72
2017-10-18T10:48:24.159Z,29.01
2017-10-18T10:50:49.908Z,29.56
2017-10-18T10:53:15.695Z,30.43
2017-10-18T10:55:41.451Z,30.64
2017-10-18T10:58:07.211Z,29.91
2017-10-18T11:00:32.987Z,30.01
2017-10-18T11:02:58.737Z,30.01
2017-10-18T11:05:24.527Z,30.35
2017-10-18T11:07:50.297Z,30.57
2017-10-18T11:10:16.087Z,30.50
2017-10-18T11:12:41.833Z,30.16
2017-10-18T11:15:07.600Z,29.66
2017-10-18T11:17:33.379Z,29.39
2017-10-18T11:19:59.136Z,29.31
2017-10-18T11:22:26.738Z,28.84
2017-10-18T11:24:52.495Z,28.81
2017-10-18T11:27:18.237Z,29.14
2017-10-18T11:29:44.015Z,28.83
2017-10-18T11:32:09.791Z,29.58
2017-10-18T11:34:35.563Z,30.08
2017-10-18T11:37:01.313Z,29.88
2017-10-18T11:39:27.091Z,29.60
2017-10-18T11:41:52.835Z,29.75
2017-10-18T11:44:18.578Z,29.85
2017-10-18T11:46:44.323Z,29.91
2017-10-18T11:49:10.072Z,30.09
2017-10-18T11:51:35.848Z,30.32
2017-10-18T11:54:01.593Z,29.56
2017-10-18T11:56:27.343Z,29.62
2017-10-18T11:58:53.136Z,29.63
2017-10-18T12:01:18.950Z,29.36
2017-10-18T12:03:44.727Z,29.66
2017-10-18T12:06:10.497Z,29.96
2017-10-18T12:08:36.237Z,29.29
2017-10-18T12:11:02.007Z,28.59
2017-10-18T12:13:27.788Z,28.20
2017-10-18T12:15:53.558Z,28.34
2017-10-18T12:18:19.334Z,28.70
2017-10-18T12:20:46.082Z,29.02
2017-10-18T12:23:11.847Z,29.50
2017-10-18T12:25:37.603Z,29.65
2017-10-18T12:28:03.368Z,29.58
2017-10-18T12:30:29.112Z,29.87
2017-10-18T12:32:54.899Z,30.00
2017-10-18T12:35:20.678Z,29.91
2017-10-18T12:37:46.426Z,29.54
2017-10-18T12:40:12.183Z,28.46
2017-10-18T12:42:37.949Z,28.25
2017-10-18T12:45:03.692Z,27.88
2017-10-18T12:47:29.452Z,27.34
2017-10-18T12:49:55.244Z,28.35
2017-10-18T12:52:21.039Z,28.57
2017-10-18T12:54:46.791Z,27.20
2017-10-18T12:57:12.545Z,26.70
2017-10-18T12:59:38.388Z,27.63
2017-10-18T13:02:04.167Z,28.30
2017-10-18T13:04:29.947Z,28.84
2017-10-18T13:06:55.705Z,29.28
2017-10-18T13:09:21.461Z,29.54
2017-10-18T13:11:47.203Z,30.31
2017-10-18T13:14:12.981Z,30.66
2017-10-18T13:16:38.751Z,30.79
2017-10-18T13:19:04.522Z,30.82
2017-10-18T13:21:30.258Z,30.53
2017-10-18T13:23:56.030Z,30.29
2017-10-18T13:26:21.792Z,30.54
2017-10-18T13:28:47.551Z,30.67
2017-10-18T13:31:13.519Z,31.00
2017-10-18T13:33:39.335Z,31.19
2017-10-18T13:36:05.278Z,30.53
2017-10-18T13:38:31.099Z,30.67
2017-10-18T13:40:56.870Z,30.83
2017-10-18T13:43:22.649Z,30.85
2017-10-18T13:45:48.438Z,31.02
2017-10-18T13:48:14.183Z,30.87
2017-10-18T13:50:39.926Z,30.94
2017-10-18T13:53:05.680Z,30.89
2017-10-18T13:55:31.424Z,30.88
2017-10-18T13:57:57.187Z,30.93
2017-10-18T14:00:22.934Z,30.76
2017-10-18T14:02:48.723Z,30.63
2017-10-18T14:05:14.470Z,30.67
2017-10-18T14:07:40.260Z,30.59
2017-10-18T14:10:06.008Z,30.65
2017-10-18T14:12:31.759Z,30.60
2017-10-18T14:14:57.561Z,30.53
2017-10-18T14:17:23.408Z,30.30
2017-10-18T14:19:49.163Z,30.22
2017-10-18T14:22:14.927Z,30.10
2017-10-18T14:24:40.718Z,30.08
2017-10-18T14:27:06.475Z,30.08
2017-10-18T14:29:32.244Z,29.98
2017-10-18T14:31:58.021Z,29.98
2017-10-18T14:34:23.788Z,30.09
2017-10-18T14:36:49.541Z,29.79
2017-10-18T14:39:15.287Z,29.71
2017-10-18T14:41:41.072Z,29.62
2017-10-18T14:44:06.812Z,29.62
2017-10-18T14:46:32.655Z,29.53
2017-10-18T14:48:58.415Z,29.47
2017-10-18T14:51:24.173Z,29.45
2017-10-18T14:53:49.939Z,29.49
2017-10-18T14:56:15.675Z,29.40
2017-10-18T14:58:41.446Z,29.29
2017-10-18T15:01:07.235Z,29.08
2017-10-18T15:03:32.981Z,29.09
2017-10-18T15:05:58.747Z,29.00
2017-10-18T15:08:24.619Z,28.95
2017-10-18T15:10:50.400Z,29.03
2017-10-18T15:13:16.256Z,29.13
2017-10-18T15:15:42.067Z,29.11
2017-10-18T15:18:07.891Z,29.04
2017-10-18T15:20:33.681Z,29.06
2017-10-18T15:22:59.528Z,29.09
2017-10-18T15:25:25.388Z,29.13
2017-10-18T15:27:51.175Z,28.69
2017-10-18T15:30:16.951Z,28.43
2017-10-18T15:32:42.747Z,28.36
2017-10-18T15:35:08.490Z,28.26
2017-10-18T15:37:34.288Z,28.19
2017-10-18T15:40:00.077Z,28.03
2017-10-18T15:42:25.819Z,28.02
2017-10-18T15:44:51.684Z,27.88
2017-10-18T15:47:17.448Z,27.63
2017-10-18T15:49:43.191Z,27.41
2017-10-18T15:52:09.026Z,27.23
2017-10-18T15:54:34.775Z,27.07
2017-10-18T15:57:00.547Z,26.85
2017-10-18T15:59:26.363Z,26.51
2017-10-18T16:01:52.135Z,26.26
2017-10-18T16:04:17.879Z,26.03
2017-10-18T16:06:43.660Z,25.82
2017-10-18T16:09:09.495Z,25.61
2017-10-18T16:11:35.249Z,25.37
2017-10-18T16:14:01.028Z,25.05
2017-10-18T16:16:26.799Z,24.79
2017-10-18T16:18:52.583Z,24.37
2017-10-18T16:21:18.360Z,23.91
2017-10-18T16:23:44.142Z,23.53
2017-10-18T16:26:09.942Z,23.15
2017-10-18T16:28:35.686Z,22.75
2017-10-18T16:31:01.431Z,22.49
2017-10-18T16:33:27.207Z,22.33
2017-10-18T16:35:52.964Z,22.09
2017-10-18T16:38:18.734Z,21.91
2017-10-18T16:40:44.487Z,21.80
2017-10-18T16:43:10.276Z,21.58
2017-10-18T16:45:36.042Z,21.33
2017-10-18T16:48:01.814Z,21.17
2017-10-18T16:50:27.607Z,20.90
2017-10-18T16:52:53.360Z,20.75
2017-10-18T16:55:19.120Z,20.56
2017-10-18T16:57:44.886Z,20.28
2017-10-18T17:00:11.556Z,20.04
2017-10-18T17:02:37.310Z,19.94
2017-10-18T17:05:03.065Z,19.88
2017-10-18T17:07:28.862Z,19.80
2017-10-18T17:09:54.625Z,19.67
2017-10-18T17:12:20.426Z,19.58
2017-10-18T17:14:46.198Z,19.41
2017-10-18T17:17:11.987Z,19.29
2017-10-18T17:19:37.747Z,19.20
2017-10-18T17:22:03.527Z,19.10
2017-10-18T17:24:29.278Z,18.96
2017-10-18T17:26:55.043Z,18.83
2017-10-18T17:29:20.830Z,18.70
2017-10-18T17:31:46.588Z,18.38
2017-10-18T17:34:12.470Z,18.21
2017-10-18T17:36:38.233Z,18.04
2017-10-18T17:39:04.039Z,18.08
2017-10-18T17:41:29.802Z,17.97
2017-10-18T17:43:55.578Z,17.82
2017-10-18T17:46:21.343Z,17.66
2017-10-18T17:48:47.192Z,17.53
2017-10-18T17:51:12.951Z,17.46
2017-10-18T17:53:38.699Z,17.44
2017-10-18T17:56:04.480Z,17.47
2017-10-18T17:58:30.247Z,17.51
2017-10-18T18:00:56.006Z,17.49
2017-10-18T18:03:21.804Z,17.58
2017-10-18T18:05:47.569Z,17.59
2017-10-18T18:08:13.351Z,17.41
2017-10-18T18:10:39.367Z,17.29
2017-10-18T18:13:06.093Z,17.13
2017-10-18T18:15:31.899Z,16.96
2017-10-18T18:17:57.994Z,16.94
2017-10-18T18:20:23.746Z,16.83
2017-10-18T18:22:49.507Z,16.83
2017-10-18T18:25:15.270Z,16.83
2017-10-18T18:27:41.023Z,16.67
2017-10-18T18:30:06.767Z,16.52
2017-10-18T18:32:32.536Z,16.46
2017-10-18T18:34:58.335Z,16.51
2017-10-18T18:37:24.127Z,16.46
2017-10-18T18:39:49.919Z,16.43
2017-10-18T18:42:15.714Z,16.44
2017-10-18T18:44:41.491Z,16.40
2017-10-18T18:47:07.237Z,16.31
2017-10-18T18:49:33.008Z,16.22
2017-10-18T18:51:58.783Z,16.09
2017-10-18T18:54:24.534Z,16.04
2017-10-18T18:56:50.328Z,16.04
2017-10-18T18:59:16.076Z,15.98
2017-10-18T19:01:41.855Z,15.90
2017-10-18T19:04:07.649Z,15.83
2017-10-18T19:06:33.446Z,15.74
2017-10-18T19:08:59.227Z,15.70
2017-10-18T19:11:24.963Z,15.72
2017-10-18T19:13:50.722Z,15.73
2017-10-18T19:16:16.523Z,15.70
2017-10-18T19:18:42.295Z,15.68
2017-10-18T19:21:08.046Z,15.64
2017-10-18T19:23:33.838Z,15.54
2017-10-18T19:25:59.631Z,15.55
2017-10-18T19:28:25.389Z,15.55
2017-10-18T19:30:51.143Z,15.54
2017-10-18T19:33:16.915Z,15.46
2017-10-18T19:35:42.698Z,15.34
2017-10-18T19:38:08.450Z,15.27
2017-10-18T19:40:34.212Z,15.19
2017-10-18T19:43:00.003Z,15.15
2017-10-18T19:45:25.768Z,15.03
2017-10-18T19:47:51.544Z,14.81
2017-10-18T19:50:17.296Z,14.76
2017-10-18T19:52:43.066Z,14.70
2017-10-18T19:55:08.840Z,14.73
2017-10-18T19:57:34.616Z,14.65
2017-10-18T20:00:00.375Z,14.61
2017-10-18T20:02:26.126Z,14.56
2017-10-18T20:04:51.915Z,14.63
2017-10-18T20:07:17.691Z,14.64
2017-10-18T20:09:43.443Z,14.60
2017-10-18T20:12:09.231Z,14.53
2017-10-18T20:14:34.989Z,14.47
2017-10-18T20:17:00.741Z,14.41
2017-10-18T20:19:26.515Z,14.37
2017-10-18T20:21:52.262Z,14.32
2017-10-18T20:24:18.043Z,14.30
2017-10-18T20:26:43.810Z,14.28
2017-10-18T20:29:09.562Z,14.35
2017-10-18T20:31:35.311Z,14.32
2017-10-18T20:34:01.107Z,14.32
2017-10-18T20:36:26.879Z,14.26
2017-10-18T20:38:52.635Z,14.17
2017-10-18T20:41:22.039Z,14.12
2017-10-18T20:43:47.803Z,14.09
2017-10-18T20:46:13.575Z,14.13
2017-10-18T20:48:39.359Z,14.15
2017-10-18T20:51:05.159Z,14.15
2017-10-18T20:53:30.924Z,13.90
2017-10-18T20:55:56.710Z,13.91
2017-10-18T20:58:22.468Z,13.85
2017-10-18T21:00:48.346Z,13.69
2017-10-18T21:03:14.239Z,13.72
2017-10-18T21:05:40.063Z,13.68
2017-10-18T21:08:05.859Z,13.59
2017-10-18T21:10:31.647Z,13.67
2017-10-18T21:12:57.415Z,13.74
2017-10-18T21:15:23.188Z,13.67
2017-10-18T21:17:49.011Z,13.58
2017-10-18T21:20:14.771Z,13.42
2017-10-18T21:22:41.034Z,13.38
2017-10-18T21:25:06.855Z,13.35
2017-10-18T21:27:32.670Z,13.30
2017-10-18T21:29:58.432Z,13.26
2017-10-18T21:32:24.264Z,13.28
2017-10-18T21:34:50.123Z,13.23
2017-10-18T21:37:15.940Z,13.17
2017-10-18T21:39:41.726Z,13.15
2017-10-18T21:42:07.479Z,13.15
2017-10-18T21:44:33.243Z,13.05
2017-10-18T21:46:59.082Z,13.08
2017-10-18T21:49:25.711Z,13.04
2017-10-18T21:51:51.459Z,13.01
2017-10-18T21:54:17.228Z,12.99
2017-10-18T21:56:42.976Z,13.04
2017-10-18T21:59:08.742Z,13.03
2017-10-18T22:01:34.567Z,13.10
2017-10-18T22:04:00.315Z,12.86
2017-10-18T22:06:26.060Z,12.36
2017-10-18T22:08:51.887Z,12.11
2017-10-18T22:11:17.651Z,12.01
2017-10-18T22:13:43.435Z,12.00
2017-10-18T22:16:09.181Z,12.02
2017-10-18T22:18:34.932Z,12.06
2017-10-18T22:21:00.707Z,12.12
2017-10-18T22:23:27.511Z,12.21
2017-10-18T22:25:53.258Z,12.36
2017-10-18T22:28:19.166Z,12.33
2017-10-18T22:30:44.920Z,12.26
2017-10-18T22:33:10.673Z,12.26
2017-10-18T22:35:36.451Z,12.24
2017-10-18T22:38:02.252Z,12.21
2017-10-18T22:40:28.007Z,12.12
2017-10-18T22:42:53.795Z,12.08
2017-10-18T22:45:19.559Z,12.05
2017-10-18T22:47:45.307Z,12.02
2017-10-18T22:50:11.167Z,12.01
2017-10-18T22:52:43.099Z,12.00
2017-10-18T22:55:08.895Z,12.07
2017-10-18T22:57:34.667Z,12.02
2017-10-18T23:00:00.435Z,12.09
2017-10-18T23:02:26.219Z,12.12
2017-10-18T23:04:51.963Z,12.07
2017-10-18T23:07:17.715Z,12.07
2017-10-18T23:09:43.490Z,12.08
2017-10-18T23:12:09.240Z,12.09
2017-10-18T23:14:35.028Z,12.13
2017-10-18T23:17:00.799Z,12.15
2017-10-18T23:19:26.571Z,12.19
2017-10-18T23:21:52.330Z,12.31
2017-10-18T23:24:18.111Z,12.35
2017-10-18T23:26:43.871Z,12.41
2017-10-18T23:29:09.644Z,12.47
2017-10-18T23:31:35.439Z,12.59
2017-10-18T23:34:01.180Z,12.70
2017-10-18T23:36:26.970Z,12.77
2017-10-18T23:38:52.711Z,12.78
2017-10-18T23:41:18.474Z,12.95
2017-10-18T23:43:44.315Z,13.06
2017-10-18T23:46:10.111Z,13.14
2017-10-18T23:48:35.854Z,13.14
2017-10-18T23:51:01.650Z,13.21
2017-10-18T23:53:27.420Z,13.30
2017-10-18T23:55:53.179Z,13.36
2017-10-18T23:58:18.916Z,13.40
